createdAt,value
2023-02-03T00:02:25.890Z,86.31
2023-02-03T00:04:53.253Z,86.19
2023-02-03T00:07:21.047Z,86.49
2023-02-03T00:09:48.490Z,86.90
2023-02-03T00:12:15.812Z,86.15
2023-02-03T00:14:43.499Z,86.24
2023-02-03T00:17:10.800Z,85.91
2023-02-03T00:19:40.119Z,86.07
2023-02-03T00:22:08.494Z,85.85
2023-02-03T00:24:36.053Z,85.65
2023-02-03T00:27:03.537Z,85.57
2023-02-03T00:29:30.894Z,85.64
2023-02-03T00:31:59.374Z,85.52
2023-02-03T00:34:31.020Z,85.83
2023-02-03T00:36:58.947Z,85.36
2023-02-03T00:39:26.371Z,85.24
2023-02-03T00:41:53.862Z,85.15
2023-02-03T00:44:22.821Z,85.69
2023-02-03T00:46:51.124Z,85.53
2023-02-03T00:49:18.833Z,85.42
2023-02-03T00:51:46.695Z,85.17
2023-02-03T00:54:14.806Z,85.63
2023-02-03T00:56:42.241Z,85.86
2023-02-03T00:59:10.440Z,85.30
2023-02-03T01:01:38.378Z,86.01
2023-02-03T01:04:06.214Z,85.94
2023-02-03T01:06:34.854Z,85.84
2023-02-03T01:09:03.368Z,85.72
2023-02-03T01:11:32.481Z,85.59
2023-02-03T01:14:01.941Z,85.88
2023-02-03T01:16:31.223Z,85.95
2023-02-03T01:18:58.733Z,85.77
2023-02-03T01:21:27.310Z,85.59
2023-02-03T01:23:56.317Z,85.77
2023-02-03T01:26:28.660Z,85.86
2023-02-03T01:28:58.725Z,85.37
2023-02-03T01:31:32.352Z,85.48
2023-02-03T01:34:00.373Z,85.70
2023-02-03T01:36:30.973Z,85.60
2023-02-03T01:38:58.726Z,85.45
2023-02-03T01:41:33.682Z,85.69
2023-02-03T01:44:03.095Z,85.23
2023-02-03T01:46:36.121Z,85.46
2023-02-03T01:49:06.945Z,85.82
2023-02-03T01:51:35.803Z,85.50
2023-02-03T01:54:03.968Z,85.91
2023-02-03T01:56:37.587Z,85.47
2023-02-03T01:59:05.779Z,85.56
2023-02-03T02:01:35.170Z,85.76
2023-02-03T02:04:04.490Z,85.88
2023-02-03T02:06:31.974Z,85.61
2023-02-03T02:09:01.131Z,85.90
2023-02-03T02:11:29.587Z,85.97
2023-02-03T02:14:02.471Z,85.90
2023-02-03T02:17:06.828Z,85.77
2023-02-03T02:20:14.719Z,85.82
2023-02-03T02:23:20.419Z,85.91
2023-02-03T02:26:27.829Z,85.76
2023-02-03T02:29:19.450Z,85.79
2023-02-03T02:32:08.621Z,85.72
2023-02-03T02:34:48.345Z,85.62
2023-02-03T02:37:34.921Z,85.93
2023-02-03T02:40:19.324Z,85.92
2023-02-03T02:43:04.285Z,86.02
2023-02-03T02:45:49.983Z,86.33
2023-02-03T02:48:40.398Z,86.10
2023-02-03T02:51:12.718Z,86.41
2023-02-03T02:53:46.307Z,86.25
2023-02-03T02:56:16.670Z,86.56
2023-02-03T02:58:47.528Z,86.42
2023-02-03T03:01:17.598Z,86.59
2023-02-03T03:03:45.653Z,86.56
2023-02-03T03:06:30.357Z,87.18
2023-02-03T03:09:44.645Z,86.74
2023-02-03T03:12:22.055Z,87.31
2023-02-03T03:15:03.848Z,86.73
2023-02-03T03:17:41.127Z,86.94
2023-02-03T03:20:13.892Z,87.33
2023-02-03T03:23:05.551Z,87.65
2023-02-03T03:25:41.125Z,87.52
2023-02-03T03:28:24.565Z,87.33
2023-02-03T03:30:52.740Z,87.36
2023-02-03T03:33:22.196Z,87.52
2023-02-03T03:35:54.359Z,87.52
2023-02-03T03:38:33.227Z,87.28
2023-02-03T03:41:18.213Z,87.29
2023-02-03T03:43:48.416Z,87.33
2023-02-03T03:46:26.228Z,86.93
2023-02-03T03:49:01.909Z,87.13
2023-02-03T03:51:37.569Z,87.54
2023-02-03T03:54:11.267Z,86.85
2023-02-03T03:56:48.034Z,87.37
2023-02-03T03:59:20.470Z,87.25
2023-02-03T04:01:50.999Z,87.21
2023-02-03T04:04:19.932Z,87.16
2023-02-03T04:06:47.263Z,87.40
2023-02-03T04:09:14.831Z,87.12
2023-02-03T04:12:00.761Z,87.73
2023-02-03T04:14:36.046Z,87.65
2023-02-03T04:17:03.399Z,87.64
2023-02-03T04:19:31.076Z,87.35
2023-02-03T04:21:58.844Z,87.26
2023-02-03T04:24:26.532Z,87.16
2023-02-03T04:26:54.086Z,87.58
2023-02-03T04:29:21.568Z,87.01
2023-02-03T04:31:49.213Z,87.01
2023-02-03T04:34:17.448Z,87.12
2023-02-03T04:36:45.293Z,87.30
2023-02-03T04:39:12.765Z,87.49
2023-02-03T04:41:40.271Z,87.70
2023-02-03T04:44:07.907Z,87.68
2023-02-03T04:46:35.716Z,87.76
2023-02-03T04:49:03.450Z,87.30
2023-02-03T04:51:31.435Z,87.20
2023-02-03T04:53:58.820Z,87.14
2023-02-03T04:56:26.501Z,87.22
2023-02-03T04:58:54.188Z,87.16
2023-02-03T05:01:21.777Z,87.28
2023-02-03T05:03:49.973Z,87.44
2023-02-03T05:06:17.393Z,87.63
2023-02-03T05:08:44.763Z,87.40
2023-02-03T05:11:12.425Z,87.77
2023-02-03T05:13:39.837Z,87.36
2023-02-03T05:16:07.420Z,87.52
2023-02-03T05:18:34.974Z,87.10
2023-02-03T05:21:02.671Z,87.19
2023-02-03T05:23:30.071Z,87.08
2023-02-03T05:25:57.566Z,87.41
2023-02-03T05:28:25.156Z,87.99
2023-02-03T05:30:52.868Z,87.09
2023-02-03T05:33:20.803Z,86.65
2023-02-03T05:35:48.376Z,86.76
2023-02-03T05:38:16.011Z,86.81
2023-02-03T05:41:01.961Z,86.49
2023-02-03T05:43:29.976Z,86.61
2023-02-03T05:46:01.591Z,86.77
2023-02-03T05:48:29.999Z,86.11
2023-02-03T05:50:57.884Z,85.79
2023-02-03T05:53:26.474Z,86.84
2023-02-03T05:55:54.307Z,85.87
2023-02-03T05:58:22.417Z,86.09
2023-02-03T06:00:49.936Z,86.45
2023-02-03T06:03:17.448Z,85.79
2023-02-03T06:05:45.216Z,86.73
2023-02-03T06:08:12.729Z,87.25
2023-02-03T06:10:40.318Z,86.90
2023-02-03T06:13:16.307Z,86.55
2023-02-03T06:15:44.551Z,86.94
2023-02-03T06:18:12.031Z,86.74
2023-02-03T06:20:39.312Z,86.57
2023-02-03T06:23:06.776Z,86.75
2023-02-03T06:25:34.445Z,85.99
2023-02-03T06:28:01.897Z,86.48
2023-02-03T06:30:29.927Z,87.33
2023-02-03T06:32:57.676Z,87.07
2023-02-03T06:35:25.089Z,87.61
2023-02-03T06:37:52.820Z,86.94
2023-02-03T06:40:20.692Z,86.98
2023-02-03T06:42:48.728Z,86.49
2023-02-03T06:45:17.599Z,87.59
2023-02-03T06:47:45.778Z,86.61
2023-02-03T06:50:15.616Z,86.24
2023-02-03T06:52:44.388Z,86.36
2023-02-03T06:55:12.263Z,86.22
2023-02-03T06:57:48.136Z,86.48
2023-02-03T07:00:26.422Z,86.38
2023-02-03T07:02:55.784Z,85.22
2023-02-03T07:05:24.296Z,85.68
2023-02-03T07:07:52.533Z,86.96
2023-02-03T07:10:20.397Z,87.02
2023-02-03T07:12:48.200Z,87.34
2023-02-03T07:15:15.643Z,86.14
2023-02-03T07:17:43.584Z,85.78
2023-02-03T07:20:11.675Z,86.77
2023-02-03T07:22:40.879Z,86.51
2023-02-03T07:25:08.755Z,86.55
2023-02-03T07:27:36.385Z,86.78
2023-02-03T07:30:04.865Z,85.86
2023-02-03T07:32:33.864Z,86.42
2023-02-03T07:35:01.675Z,86.23
2023-02-03T07:37:31.027Z,86.06
2023-02-03T07:39:58.584Z,85.98
2023-02-03T07:42:25.957Z,85.42
2023-02-03T07:44:53.446Z,85.88
2023-02-03T07:47:21.370Z,85.73
2023-02-03T07:49:48.882Z,85.21
2023-02-03T07:52:17.120Z,84.89
2023-02-03T07:54:44.997Z,85.50
2023-02-03T07:57:12.226Z,84.67
2023-02-03T07:59:39.954Z,85.50
2023-02-03T08:02:09.499Z,84.53
2023-02-03T08:04:37.536Z,84.53
2023-02-03T08:07:05.354Z,84.45
2023-02-03T08:09:33.141Z,85.07
2023-02-03T08:12:00.698Z,84.59
2023-02-03T08:14:28.117Z,84.72
2023-02-03T08:16:55.770Z,84.32
2023-02-03T08:19:23.385Z,84.58
2023-02-03T08:21:51.681Z,84.82
2023-02-03T08:24:19.500Z,84.94
2023-02-03T08:26:47.334Z,84.09
2023-02-03T08:29:14.888Z,84.47
2023-02-03T08:31:43.333Z,83.99
2023-02-03T08:34:11.012Z,84.75
2023-02-03T08:36:40.192Z,84.21
2023-02-03T08:39:08.032Z,83.86
2023-02-03T08:41:35.622Z,84.22
2023-02-03T08:44:03.163Z,83.81
2023-02-03T08:46:30.722Z,83.70
2023-02-03T08:48:58.208Z,84.00
2023-02-03T08:51:26.254Z,84.73
2023-02-03T08:53:54.271Z,83.92
2023-02-03T08:56:22.054Z,84.16
2023-02-03T08:58:49.817Z,83.65
2023-02-03T09:01:17.608Z,84.19
2023-02-03T09:03:45.040Z,83.74
2023-02-03T09:06:16.772Z,84.30
2023-02-03T09:08:46.404Z,83.79
2023-02-03T09:11:16.268Z,84.02
2023-02-03T09:13:47.137Z,84.11
2023-02-03T09:16:17.677Z,83.86
2023-02-03T09:18:45.876Z,83.47
2023-02-03T09:21:32.073Z,83.97
2023-02-03T09:24:03.812Z,83.40
2023-02-03T09:26:31.727Z,83.17
2023-02-03T09:28:59.655Z,83.19
2023-02-03T09:31:27.569Z,83.72
2023-02-03T09:33:55.522Z,84.27
2023-02-03T09:36:22.933Z,84.27
2023-02-03T09:38:50.271Z,83.85
2023-02-03T09:41:32.629Z,84.01
2023-02-03T09:44:24.818Z,84.12
2023-02-03T09:46:57.428Z,83.82
2023-02-03T09:49:39.013Z,84.06
2023-02-03T09:52:16.091Z,83.76
2023-02-03T09:55:04.492Z,84.03
2023-02-03T09:57:40.836Z,83.33
2023-02-03T10:00:21.178Z,83.10
2023-02-03T10:03:04.457Z,83.40
2023-02-03T10:05:44.030Z,82.74
2023-02-03T10:08:35.259Z,82.74
2023-02-03T10:11:25.457Z,83.10
2023-02-03T10:14:08.151Z,83.66
2023-02-03T10:16:41.703Z,83.46
2023-02-03T10:19:20.926Z,82.84
2023-02-03T10:21:58.828Z,82.92
2023-02-03T10:24:37.547Z,82.37
2023-02-03T10:27:05.159Z,82.46
2023-02-03T10:29:43.048Z,81.69
2023-02-03T10:32:12.120Z,82.16
2023-02-03T10:34:40.221Z,82.07
2023-02-03T10:37:30.210Z,82.15
2023-02-03T10:40:01.871Z,82.30
2023-02-03T10:42:53.255Z,82.42
2023-02-03T10:45:21.298Z,81.98
2023-02-03T10:47:59.369Z,81.87
2023-02-03T10:50:33.903Z,81.84
2023-02-03T10:53:22.963Z,82.33
2023-02-03T10:56:14.331Z,81.42
2023-02-03T10:58:59.429Z,81.55
2023-02-03T11:01:39.275Z,81.27
2023-02-03T11:04:23.897Z,81.66
2023-02-03T11:06:57.724Z,81.50
2023-02-03T11:09:40.202Z,81.67
2023-02-03T11:12:16.294Z,81.29
2023-02-03T11:14:47.285Z,81.18
2023-02-03T11:17:19.236Z,80.98
2023-02-03T11:19:49.233Z,81.08
2023-02-03T11:22:38.417Z,80.57
2023-02-03T11:25:19.510Z,80.45
2023-02-03T11:27:50.407Z,80.13
2023-02-03T11:30:32.272Z,80.74
2023-02-03T11:33:03.987Z,79.77
2023-02-03T11:35:33.796Z,79.67
2023-02-03T11:38:02.506Z,79.08
2023-02-03T11:40:32.738Z,79.10
2023-02-03T11:43:16.710Z,79.33
2023-02-03T11:45:47.829Z,78.82
2023-02-03T11:48:33.589Z,79.26
2023-02-03T11:51:19.183Z,79.33
2023-02-03T11:53:57.530Z,78.81
2023-02-03T11:57:02.159Z,79.25
2023-02-03T11:59:44.840Z,79.00
2023-02-03T12:02:49.426Z,79.32
2023-02-03T12:05:38.213Z,78.80
2023-02-03T12:08:12.969Z,78.87
2023-02-03T12:10:55.746Z,78.97
2023-02-03T12:13:51.233Z,79.22
2023-02-03T12:16:28.095Z,78.76
2023-02-03T12:19:32.027Z,79.18
2023-02-03T12:22:26.076Z,78.74
2023-02-03T12:24:59.731Z,77.96
2023-02-03T12:27:56.603Z,77.99
2023-02-03T12:30:39.862Z,78.99
2023-02-03T12:33:17.725Z,78.57
2023-02-03T12:36:11.652Z,78.29
2023-02-03T12:38:48.528Z,78.37
2023-02-03T12:41:46.677Z,78.28
2023-02-03T12:44:26.211Z,78.36
2023-02-03T12:47:25.241Z,78.16
2023-02-03T12:49:58.900Z,77.63
2023-02-03T12:52:38.120Z,77.76
2023-02-03T12:55:28.903Z,78.19
2023-02-03T12:58:03.352Z,78.14
2023-02-03T13:00:59.323Z,78.31
2023-02-03T13:03:32.938Z,78.44
2023-02-03T13:06:20.668Z,77.98
2023-02-03T13:08:56.018Z,78.63
2023-02-03T13:11:32.446Z,77.69
2023-02-03T13:14:31.062Z,78.36
2023-02-03T13:17:28.286Z,78.40
2023-02-03T13:20:02.726Z,78.89
2023-02-03T13:22:30.741Z,78.79
2023-02-03T13:25:23.535Z,79.29
2023-02-03T13:28:01.027Z,78.77
2023-02-03T13:30:47.090Z,79.09
2023-02-03T13:33:36.845Z,79.07
2023-02-03T13:36:31.876Z,79.09
2023-02-03T13:39:33.066Z,79.78
2023-02-03T13:42:30.510Z,79.78
2023-02-03T13:45:06.617Z,80.69
2023-02-03T13:47:34.462Z,81.24
2023-02-03T13:50:20.941Z,81.01
2023-02-03T13:53:08.905Z,82.22
2023-02-03T13:55:55.235Z,82.11
2023-02-03T13:58:32.859Z,83.39
2023-02-03T14:01:07.585Z,82.83
2023-02-03T14:03:35.030Z,83.71
2023-02-03T14:06:03.816Z,84.24
2023-02-03T14:08:31.632Z,84.30
2023-02-03T14:11:36.259Z,84.87
2023-02-03T14:14:12.475Z,85.33
2023-02-03T14:16:54.795Z,86.09
2023-02-03T14:19:22.581Z,86.74
2023-02-03T14:21:59.020Z,87.30
2023-02-03T14:24:42.895Z,87.05
2023-02-03T14:27:30.423Z,87.51
2023-02-03T14:30:11.146Z,87.79
2023-02-03T14:33:00.313Z,87.78
2023-02-03T14:35:35.667Z,88.20
2023-02-03T14:38:15.389Z,88.16
2023-02-03T14:41:03.248Z,88.65
2023-02-03T14:43:45.819Z,88.80
2023-02-03T14:46:42.438Z,89.02
2023-02-03T14:49:19.096Z,89.07
2023-02-03T14:52:27.922Z,89.46
2023-02-03T14:55:13.407Z,90.34
2023-02-03T14:57:44.349Z,90.81
2023-02-03T15:00:21.918Z,90.81
2023-02-03T15:03:10.696Z,91.14
2023-02-03T15:05:49.721Z,91.68
2023-02-03T15:08:43.050Z,91.32
2023-02-03T15:11:27.770Z,91.13
2023-02-03T15:13:58.383Z,91.43
2023-02-03T15:16:27.417Z,91.91
2023-02-03T15:19:00.970Z,91.39
2023-02-03T15:21:28.647Z,91.52
2023-02-03T15:23:56.213Z,91.34
2023-02-03T15:26:27.396Z,91.82
2023-02-03T15:29:03.587Z,91.97
2023-02-03T15:31:44.301Z,92.72
2023-02-03T15:34:22.185Z,92.42
2023-02-03T15:36:54.439Z,92.39
2023-02-03T15:39:39.242Z,92.13
2023-02-03T15:42:14.798Z,92.90
2023-02-03T15:44:49.601Z,92.95
2023-02-03T15:47:40.576Z,92.99
2023-02-03T15:50:41.922Z,93.00
2023-02-03T15:53:41.114Z,93.02
2023-02-03T15:56:21.778Z,92.88
2023-02-03T15:58:50.352Z,93.10
2023-02-03T16:01:23.707Z,93.76
2023-02-03T16:03:54.630Z,93.61
2023-02-03T16:06:27.389Z,93.74
2023-02-03T16:08:56.163Z,93.45
2023-02-03T16:11:39.357Z,93.65
2023-02-03T16:18:00.072Z,93.35
2023-02-03T16:20:33.586Z,93.64
2023-02-03T16:23:18.888Z,93.46
2023-02-03T16:26:17.704Z,93.17
2023-02-03T16:29:22.795Z,93.27
2023-02-03T16:32:09.192Z,93.43
2023-02-03T16:34:56.058Z,93.46
2023-02-03T16:37:48.760Z,93.44
2023-02-03T16:43:59.120Z,92.92
2023-02-03T16:46:45.020Z,93.34
2023-02-03T16:49:31.399Z,92.96
2023-02-03T16:51:58.993Z,93.04
2023-02-03T16:54:30.934Z,92.73
2023-02-03T16:56:59.011Z,92.85
2023-02-03T16:59:26.501Z,93.23
2023-02-03T17:01:59.712Z,93.12
2023-02-03T17:04:29.597Z,93.33
2023-02-03T17:06:57.440Z,93.45
2023-02-03T17:09:25.814Z,93.33
2023-02-03T17:11:57.424Z,93.47
2023-02-03T17:14:26.852Z,92.67
2023-02-03T17:16:54.465Z,93.31
2023-02-03T17:19:22.152Z,93.68
2023-02-03T17:21:51.674Z,93.49
2023-02-03T17:24:19.757Z,93.87
2023-02-03T17:26:50.680Z,94.19
2023-02-03T17:29:18.470Z,94.43
2023-02-03T17:31:48.970Z,94.76
2023-02-03T17:34:19.500Z,94.94
2023-02-03T17:36:47.339Z,95.23
2023-02-03T17:55:38.420Z,95.78
2023-02-03T17:58:05.745Z,95.78
2023-02-03T18:00:38.551Z,96.08
2023-02-03T18:03:06.316Z,96.43
2023-02-03T18:05:37.858Z,96.82
2023-02-03T18:08:16.073Z,96.60
2023-02-03T18:10:44.385Z,96.50
2023-02-03T18:13:12.016Z,96.36
2023-02-03T18:15:41.841Z,96.58
2023-02-03T18:18:14.217Z,96.63
2023-02-03T18:20:42.563Z,96.93
2023-02-03T18:23:09.957Z,97.01
2023-02-03T18:25:38.553Z,96.58
2023-02-03T18:28:06.396Z,96.79
2023-02-03T18:30:33.969Z,97.27
2023-02-03T18:33:02.418Z,97.05
2023-02-03T18:35:30.724Z,96.95
2023-02-03T18:37:58.067Z,97.30
2023-02-03T18:40:26.023Z,97.53
2023-02-03T18:42:56.558Z,97.05
2023-02-03T18:45:23.968Z,97.27
2023-02-03T18:47:51.376Z,96.70
2023-02-03T18:50:19.398Z,97.08
2023-02-03T18:52:46.875Z,97.56
2023-02-03T18:55:14.664Z,97.12
2023-02-03T18:57:42.558Z,97.06
2023-02-03T19:00:10.676Z,97.05
2023-02-03T19:02:38.108Z,97.08
2023-02-03T19:05:06.561Z,96.91
2023-02-03T19:07:34.354Z,96.80
2023-02-03T19:10:08.410Z,96.97
2023-02-03T19:12:42.204Z,96.88
2023-02-03T19:15:20.820Z,97.44
2023-02-03T19:17:53.732Z,96.45
2023-02-03T19:20:22.460Z,97.16
2023-02-03T19:22:58.033Z,96.81
2023-02-03T19:25:25.912Z,96.71
2023-02-03T19:27:53.579Z,96.76
2023-02-03T19:30:26.268Z,96.66
2023-02-03T19:32:54.065Z,96.43
2023-02-03T19:35:40.708Z,96.88
2023-02-03T19:38:13.390Z,96.83
2023-02-03T19:40:41.726Z,96.53
2023-02-03T19:43:10.228Z,96.84
2023-02-03T19:45:45.742Z,96.72
2023-02-03T19:48:18.171Z,96.27
2023-02-03T19:50:52.186Z,96.55
2023-02-03T19:53:22.887Z,96.55
2023-02-03T19:55:57.782Z,96.47
2023-02-03T19:58:36.778Z,96.35
2023-02-03T20:01:09.829Z,96.13
2023-02-03T20:03:37.491Z,96.17
2023-02-03T20:06:05.660Z,96.52
2023-02-03T20:08:52.868Z,96.12
2023-02-03T20:11:25.673Z,96.43
2023-02-03T20:13:57.788Z,96.01
2023-02-03T20:16:26.492Z,96.17
2023-02-03T20:19:02.214Z,96.15
2023-02-03T20:21:33.506Z,96.00
2023-02-03T20:24:02.078Z,95.88
2023-02-03T20:26:34.612Z,96.17
2023-02-03T20:29:08.062Z,95.84
2023-02-03T20:31:41.592Z,96.00
2023-02-03T20:34:09.842Z,95.83
2023-02-03T20:36:37.427Z,95.66
2023-02-03T20:39:32.238Z,95.33
2023-02-03T20:42:23.986Z,95.55
2023-02-03T20:44:51.765Z,95.88
2023-02-03T20:47:27.017Z,96.09
2023-02-03T20:50:00.361Z,95.48
2023-02-03T20:52:28.440Z,95.52
2023-02-03T20:55:00.950Z,95.22
2023-02-03T20:57:36.951Z,95.34
2023-02-03T21:00:35.453Z,95.59
2023-02-03T21:03:21.518Z,96.37
2023-02-03T21:05:49.357Z,96.43
2023-02-03T21:08:19.744Z,96.65
2023-02-03T21:10:48.779Z,97.01
2023-02-03T21:13:22.708Z,96.58
2023-02-03T21:15:55.775Z,96.35
2023-02-03T21:18:34.261Z,96.08
2023-02-03T21:21:02.646Z,95.83
2023-02-03T21:23:40.281Z,95.52
2023-02-03T21:26:19.951Z,95.54
2023-02-03T21:28:53.399Z,95.57
2023-02-03T21:31:32.462Z,95.08
2023-02-03T21:34:06.349Z,95.25
2023-02-03T21:36:38.341Z,95.62
2023-02-03T21:39:30.134Z,95.45
2023-02-03T21:42:01.052Z,95.70
2023-02-03T21:44:35.931Z,94.89
2023-02-03T21:47:15.140Z,95.62
2023-02-03T21:49:42.599Z,95.57
2023-02-03T21:52:18.623Z,95.64
2023-02-03T21:54:48.287Z,95.78
2023-02-03T21:57:16.053Z,96.03
2023-02-03T21:59:46.956Z,95.80
2023-02-03T22:02:43.033Z,95.53
2023-02-03T22:05:16.642Z,96.20
2023-02-03T22:07:44.467Z,96.10
2023-02-03T22:10:12.372Z,95.87
2023-02-03T22:12:40.326Z,96.02
2023-02-03T22:15:08.467Z,96.07
2023-02-03T22:17:36.065Z,95.83
2023-02-03T22:20:03.979Z,95.82
2023-02-03T22:22:32.155Z,95.70
2023-02-03T22:24:59.751Z,95.45
2023-02-03T22:27:27.681Z,95.53
2023-02-03T22:29:56.769Z,95.59
2023-02-03T22:32:24.372Z,95.72
2023-02-03T22:34:51.816Z,95.83
2023-02-03T22:37:19.865Z,95.61
2023-02-03T22:39:47.596Z,95.70
2023-02-03T22:42:16.155Z,95.79
2023-02-03T22:44:44.044Z,95.78
2023-02-03T22:47:11.854Z,95.63
2023-02-03T22:49:39.181Z,95.75
2023-02-03T22:52:06.774Z,95.59
2023-02-03T22:54:36.935Z,95.39
2023-02-03T22:57:04.367Z,95.41
2023-02-03T22:59:32.207Z,95.64
2023-02-03T23:02:00.008Z,95.45
2023-02-03T23:04:28.589Z,95.70
2023-02-03T23:06:56.353Z,95.54
2023-02-03T23:09:23.817Z,95.86
2023-02-03T23:11:51.358Z,95.44
2023-02-03T23:14:19.224Z,95.30
2023-02-03T23:16:46.741Z,95.25
2023-02-03T23:19:14.313Z,95.81
2023-02-03T23:21:42.151Z,95.94
2023-02-03T23:24:09.779Z,95.60
2023-02-03T23:26:37.141Z,95.41
2023-02-03T23:29:05.184Z,95.37
2023-02-03T23:31:32.886Z,95.74
2023-02-03T23:34:19.274Z,96.06
2023-02-03T23:36:47.016Z,95.85
2023-02-03T23:39:14.449Z,95.92
2023-02-03T23:41:42.244Z,95.78
2023-02-03T23:44:11.113Z,95.51
2023-02-03T23:46:38.456Z,95.90
2023-02-03T23:49:06.043Z,96.14
2023-02-03T23:51:33.787Z,96.37
2023-02-03T23:54:01.925Z,95.81
2023-02-03T23:56:29.618Z,96.19
2023-02-03T23:58:57.209Z,96.53
